Terminal Aerodrome Forecast
Issued by NWS

Current Version | Previous Version | Text Only | Print | Product List | Glossary On
Versions: 1 2 3 4 5 6 7 8 9 10 11 12 13 14
000
FTAK31 PAJN 302300
TAFAYA
TAF
PAYA 302326Z 3100/3124 12006KT P6SM -SHRA SCT012 BKN025 OVC040
      TEMPO 3100/3102 3SM -RA BR BKN015 OVC025
     FM310900 09003KT 6SM BR FEW015 OVC035
     FM311500 10003KT 4SM -RA BR BKN015 OVC025
     FM311900 10005KT 3SM RA BR BKN008 OVC015
      AMD LTD TO CLD VIS AND WIND 3101/3110=

USA.gov is the U.S. government's official web portal to all federal, state and local government web resources and services.